Time;durP1;ratioP1;P1;durP2;ratioP2;P2;SDS_P1;SDS_P2;PMS_P1;PMS_P2;Temp;Humidity;BMP_temperature;BMP_pressure;BME280_temperature;BME280_humidity;BME280_pressure;Samples;Min_cycle;Max_cycle;Signal;HPM_P1;HPM_P2
2022/02/22 00:02:20;;;;;;;39.13;3.88;;;5.70;99.90;;;;;;5033929;28;20038;-82
2022/02/22 00:04:46;;;;;;;31.02;3.28;;;5.80;99.90;;;;;;5033907;28;20030;-82
2022/02/22 00:07:13;;;;;;;30.67;3.63;;;5.70;99.90;;;;;;5033923;28;20033;-82
2022/02/22 00:09:39;;;;;;;25.92;2.78;;;5.70;99.90;;;;;;5032764;28;20057;-82
2022/02/22 00:12:05;;;;;;;41.70;3.58;;;5.60;99.90;;;;;;5033614;28;20039;-82
2022/02/22 00:14:31;;;;;;;30.90;3.20;;;5.70;99.90;;;;;;5033200;28;20034;-82
2022/02/22 00:16:56;;;;;;;39.67;2.70;;;5.60;99.90;;;;;;5033696;28;20088;-81
2022/02/22 00:19:23;;;;;;;43.45;4.20;;;5.60;99.90;;;;;;5031168;28;20041;-82
2022/02/22 00:21:50;;;;;;;34.45;3.58;;;5.60;99.90;;;;;;5032921;28;20045;-82
2022/02/22 00:24:16;;;;;;;35.35;3.88;;;5.60;99.90;;;;;;5033650;28;20022;-82
2022/02/22 00:26:42;;;;;;;33.30;2.95;;;5.50;99.90;;;;;;5033563;28;20071;-82
2022/02/22 00:29:08;;;;;;;30.88;3.47;;;5.50;99.90;;;;;;5023311;28;20026;-82
2022/02/22 00:31:35;;;;;;;34.80;2.42;;;5.50;99.90;;;;;;5020918;28;20030;-82
2022/02/22 00:34:01;;;;;;;27.35;3.35;;;5.40;99.90;;;;;;5027377;28;20478;-81
2022/02/22 00:36:26;;;;;;;32.95;3.05;;;5.40;99.90;;;;;;5020456;28;20041;-81
2022/02/22 00:38:52;;;;;;;35.03;3.08;;;5.30;99.90;;;;;;5032531;28;20045;-82
2022/02/22 00:41:17;;;;;;;30.83;3.20;;;5.30;99.90;;;;;;5033349;28;20032;-82
2022/02/22 00:43:43;;;;;;;34.72;2.50;;;5.30;99.90;;;;;;5032871;28;20036;-82
2022/02/22 00:46:08;;;;;;;38.13;4.18;;;5.30;99.90;;;;;;5014697;28;20021;-82
2022/02/22 00:48:34;;;;;;;24.30;2.88;;;5.20;99.90;;;;;;5031717;28;20429;-82
2022/02/22 00:50:59;;;;;;;36.90;4.38;;;5.20;99.90;;;;;;5032192;28;20034;-82
2022/02/22 00:53:25;;;;;;;31.63;2.88;;;5.20;99.90;;;;;;5032946;28;20099;-81
2022/02/22 00:55:50;;;;;;;29.25;2.47;;;5.20;99.90;;;;;;5032556;28;20033;-82
2022/02/22 00:58:16;;;;;;;26.77;2.50;;;5.20;99.90;;;;;;5030584;28;20456;-82
2022/02/22 01:00:42;;;;;;;26.58;2.60;;;5.10;99.90;;;;;;5032676;28;20115;-81
2022/02/22 01:03:07;;;;;;;27.13;2.60;;;5.20;99.90;;;;;;5015225;28;20040;-81
2022/02/22 01:05:33;;;;;;;40.00;5.18;;;5.10;99.90;;;;;;5032417;28;20528;-82
2022/02/22 01:07:58;;;;;;;36.72;3.60;;;5.20;99.90;;;;;;5031935;28;20029;-82
2022/02/22 01:10:24;;;;;;;27.13;3.13;;;5.10;99.90;;;;;;5014922;28;20456;-82
2022/02/22 01:12:50;;;;;;;30.17;3.33;;;5.10;99.90;;;;;;5032439;28;20021;-82
2022/02/22 01:15:15;;;;;;;34.20;3.13;;;5.10;99.90;;;;;;5025695;28;20026;-82
2022/02/22 01:17:41;;;;;;;28.95;2.95;;;5.00;99.90;;;;;;5022981;28;20541;-81
2022/02/22 01:20:09;;;;;;;32.40;3.33;;;5.10;99.90;;;;;;5020228;28;20049;-82
2022/02/22 01:22:36;;;;;;;29.60;2.38;;;5.10;99.90;;;;;;5031988;28;20030;-82
2022/02/22 01:25:03;;;;;;;36.33;2.95;;;5.10;99.90;;;;;;5032623;28;20030;-82
2022/02/22 01:27:28;;;;;;;30.60;2.95;;;5.00;99.90;;;;;;5031293;28;20469;-82
2022/02/22 01:29:54;;;;;;;41.03;4.20;;;5.00;99.90;;;;;;5032185;28;20159;-82
2022/02/22 01:32:19;;;;;;;26.35;3.38;;;5.00;99.90;;;;;;5029571;28;20494;-82
2022/02/22 01:34:45;;;;;;;25.70;3.20;;;5.10;99.90;;;;;;5012375;28;20041;-81
2022/02/22 01:37:10;;;;;;;34.60;2.65;;;5.10;99.90;;;;;;5026134;28;20030;-82
2022/02/22 01:39:36;;;;;;;29.48;2.55;;;5.00;99.90;;;;;;5031369;28;20057;-82
2022/02/22 01:42:02;;;;;;;34.00;2.92;;;5.00;99.90;;;;;;5026037;28;20049;-81
2022/02/22 01:44:28;;;;;;;41.22;3.10;;;5.00;99.90;;;;;;5031949;28;20013;-82
2022/02/22 01:47:00;;;;;;;31.33;2.30;;;5.00;99.90;;;;;;5032345;28;20373;-82
2022/02/22 01:49:26;;;;;;;47.15;4.88;;;5.00;99.90;;;;;;5046587;28;20112;-81
2022/02/22 01:51:52;;;;;;;39.45;4.10;;;5.00;99.90;;;;;;5042371;28;20041;-82
2022/02/22 01:54:20;;;;;;;31.45;2.50;;;5.10;99.90;;;;;;5031751;28;20495;-80
2022/02/22 01:56:47;;;;;;;40.42;4.70;;;5.10;99.90;;;;;;5031981;28;20041;-82
2022/02/22 01:59:12;;;;;;;29.42;3.25;;;5.10;99.90;;;;;;5007133;28;20488;-82
2022/02/22 02:01:38;;;;;;;22.60;1.98;;;5.10;99.90;;;;;;5012591;28;20037;-81
2022/02/22 02:04:05;;;;;;;30.50;3.63;;;5.10;99.90;;;;;;5031857;28;20025;-81
2022/02/22 02:06:36;;;;;;;45.53;4.85;;;5.10;99.90;;;;;;5031079;28;20017;-82
2022/02/22 02:09:04;;;;;;;24.08;1.98;;;5.10;99.90;;;;;;5028361;28;20452;-82
2022/02/22 02:11:29;;;;;;;28.40;2.67;;;5.10;99.90;;;;;;5019652;28;20045;-82
2022/02/22 02:13:55;;;;;;;46.03;5.85;;;5.10;99.90;;;;;;5026455;28;20068;-82
2022/02/22 02:16:20;;;;;;;31.77;3.47;;;5.00;99.90;;;;;;5031131;28;20033;-82
2022/02/22 02:18:46;;;;;;;38.33;2.92;;;5.00;99.90;;;;;;5031266;28;20975;-82
2022/02/22 02:21:12;;;;;;;35.05;2.85;;;4.90;99.90;;;;;;5031757;28;20410;-82
2022/02/22 02:23:37;;;;;;;31.27;3.20;;;5.00;99.90;;;;;;5029868;28;20065;-82
2022/02/22 02:26:03;;;;;;;28.88;2.35;;;4.90;99.90;;;;;;5021456;28;20046;-82
2022/02/22 02:28:29;;;;;;;38.05;3.47;;;4.90;99.90;;;;;;5026382;28;20025;-82
2022/02/22 02:30:54;;;;;;;33.75;3.10;;;4.80;99.90;;;;;;5030711;28;20505;-82
2022/02/22 02:33:20;;;;;;;36.35;3.08;;;4.80;99.90;;;;;;5031049;28;20029;-81
2022/02/22 02:35:45;;;;;;;40.42;3.67;;;4.80;99.90;;;;;;5030084;28;20116;-83
2022/02/22 02:38:11;;;;;;;40.38;3.05;;;4.80;99.90;;;;;;5031083;28;20025;-82
2022/02/22 02:40:37;;;;;;;27.90;3.45;;;4.70;99.90;;;;;;5010224;28;20454;-82
2022/02/22 02:43:03;;;;;;;33.35;3.33;;;4.70;99.90;;;;;;5029860;28;20690;-81
2022/02/22 02:45:29;;;;;;;33.47;3.03;;;4.70;99.90;;;;;;5029539;28;20102;-82
2022/02/22 02:47:54;;;;;;;35.08;3.40;;;4.60;99.90;;;;;;5030992;28;20033;-82
2022/02/22 02:50:20;;;;;;;29.25;3.60;;;4.60;99.90;;;;;;5031616;28;20393;-82
2022/02/22 02:52:45;;;;;;;28.38;2.85;;;4.50;99.90;;;;;;5020874;28;20091;-82
2022/02/22 02:55:11;;;;;;;21.33;2.47;;;4.60;99.90;;;;;;5013001;28;20149;-82
2022/02/22 02:57:38;;;;;;;24.55;1.90;;;4.60;99.90;;;;;;5017211;28;20050;-81
2022/02/22 03:00:05;;;;;;;36.05;3.13;;;4.60;99.90;;;;;;5030597;28;20048;-82
2022/02/22 03:02:31;;;;;;;28.85;2.30;;;4.50;99.90;;;;;;5030385;28;20449;-82
2022/02/22 03:04:59;;;;;;;40.33;4.40;;;4.50;99.90;;;;;;5030786;28;20026;-82
2022/02/22 03:07:26;;;;;;;42.00;3.05;;;4.60;99.90;;;;;;5027807;28;20025;-81
2022/02/22 03:09:51;;;;;;;32.58;3.17;;;4.50;99.90;;;;;;5030833;28;20034;-82
2022/02/22 03:12:17;;;;;;;31.25;2.65;;;4.50;99.90;;;;;;5031388;28;20363;-82
2022/02/22 03:14:42;;;;;;;39.70;3.80;;;4.50;99.90;;;;;;5032661;28;20072;-82
2022/02/22 03:17:08;;;;;;;35.85;2.67;;;4.50;99.90;;;;;;5034212;28;20138;-82
2022/02/22 03:19:33;;;;;;;34.22;2.90;;;4.50;99.90;;;;;;5034036;28;20049;-82
2022/02/22 03:21:59;;;;;;;35.60;2.10;;;4.50;99.90;;;;;;5033416;28;20040;-82
2022/02/22 03:24:24;;;;;;;41.50;4.07;;;4.50;99.90;;;;;;5034556;28;20048;-83
2022/02/22 03:26:50;;;;;;;26.02;2.58;;;4.50;99.90;;;;;;5034514;28;20018;-82
2022/02/22 03:29:15;;;;;;;23.35;1.90;;;4.50;99.90;;;;;;5033664;28;20033;-82
2022/02/22 03:31:41;;;;;;;32.50;2.63;;;4.50;99.90;;;;;;5022692;28;20097;-82
2022/02/22 03:34:06;;;;;;;27.90;2.38;;;4.50;99.90;;;;;;5024497;28;20040;-82
2022/02/22 03:36:32;;;;;;;37.30;2.65;;;4.50;99.90;;;;;;5034061;28;20056;-82
2022/02/22 03:38:57;;;;;;;24.38;2.22;;;4.50;99.90;;;;;;5034036;28;20124;-82
2022/02/22 03:41:24;;;;;;;34.97;3.10;;;4.50;99.90;;;;;;5034307;28;20029;-82
2022/02/22 03:43:50;;;;;;;33.63;2.63;;;4.50;99.90;;;;;;5032675;28;20033;-81
2022/02/22 03:46:16;;;;;;;36.28;2.72;;;4.60;99.90;;;;;;5034778;28;20076;-82
2022/02/22 03:48:41;;;;;;;24.85;2.35;;;4.60;99.90;;;;;;5033961;28;20112;-81
2022/02/22 03:51:07;;;;;;;40.92;3.78;;;4.60;99.90;;;;;;5034308;28;20072;-82
2022/02/22 03:53:32;;;;;;;32.10;3.33;;;4.60;99.90;;;;;;5033749;28;20083;-82
2022/02/22 03:55:58;;;;;;;35.03;2.67;;;4.60;99.90;;;;;;5034263;28;20413;-82
2022/02/22 03:58:23;;;;;;;31.92;2.47;;;4.60;99.90;;;;;;5033822;28;20133;-82
2022/02/22 04:00:49;;;;;;;30.75;2.60;;;4.50;99.90;;;;;;5033620;28;20029;-81
2022/02/22 04:03:14;;;;;;;34.45;3.92;;;4.50;99.90;;;;;;5033483;28;20065;-82
2022/02/22 04:05:42;;;;;;;24.25;2.60;;;4.50;99.90;;;;;;5012671;28;20026;-82
2022/02/22 04:08:08;;;;;;;31.25;4.45;;;4.40;99.90;;;;;;5025365;28;20098;-82
2022/02/22 04:10:33;;;;;;;36.03;2.50;;;4.30;99.90;;;;;;5033470;28;20431;-82
2022/02/22 04:12:59;;;;;;;32.08;3.00;;;4.30;99.90;;;;;;5033678;28;20481;-82
2022/02/22 04:15:24;;;;;;;29.33;2.25;;;4.30;99.90;;;;;;5034013;28;20107;-81
2022/02/22 04:17:50;;;;;;;37.13;3.72;;;4.30;99.90;;;;;;5033292;28;20076;-82
2022/02/22 04:20:15;;;;;;;32.65;1.95;;;4.30;99.90;;;;;;5033773;28;20077;-82
2022/02/22 04:22:41;;;;;;;28.50;2.88;;;4.20;99.90;;;;;;5032651;28;20034;-82
2022/02/22 04:25:07;;;;;;;20.98;2.15;;;4.20;99.90;;;;;;5032871;28;20422;-82
2022/02/22 04:27:33;;;;;;;25.90;2.03;;;4.20;99.90;;;;;;5033158;28;20108;-82
2022/02/22 04:29:59;;;;;;;39.15;4.10;;;4.20;99.90;;;;;;5028832;28;20033;-82
2022/02/22 04:32:24;;;;;;;29.45;1.70;;;4.20;99.90;;;;;;5033226;28;20037;-82
2022/02/22 04:34:50;;;;;;;33.45;2.10;;;4.20;99.90;;;;;;5007560;28;20033;-82
2022/02/22 04:37:16;;;;;;;32.03;2.90;;;4.20;99.90;;;;;;5027150;28;20017;-82
2022/02/22 04:39:44;;;;;;;33.40;2.58;;;4.10;99.90;;;;;;5032896;28;20049;-82
2022/02/22 04:42:09;;;;;;;22.20;2.03;;;4.10;99.90;;;;;;5033688;28;20025;-82
2022/02/22 04:44:35;;;;;;;31.25;2.85;;;4.10;99.90;;;;;;5014719;28;20056;-82
2022/02/22 04:47:00;;;;;;;35.05;2.28;;;4.10;99.90;;;;;;5032511;28;20469;-81
2022/02/22 04:49:26;;;;;;;42.58;3.30;;;4.00;99.90;;;;;;5025926;28;20033;-81
2022/02/22 04:51:51;;;;;;;46.33;3.90;;;4.00;99.90;;;;;;5032824;28;20022;-81
2022/02/22 04:54:17;;;;;;;43.33;3.53;;;4.00;99.90;;;;;;5032682;28;20045;-80
2022/02/22 04:56:42;;;;;;;37.20;3.50;;;3.90;99.90;;;;;;5033021;28;20076;-82
2022/02/22 04:59:08;;;;;;;29.40;4.03;;;3.90;99.90;;;;;;5032989;28;20052;-81
2022/02/22 05:01:34;;;;;;;24.30;2.15;;;3.90;99.90;;;;;;5031667;28;20045;-82
2022/02/22 05:03:59;;;;;;;32.65;2.83;;;3.90;99.90;;;;;;5032759;28;20056;-82
2022/02/22 05:06:25;;;;;;;22.90;1.88;;;3.80;99.90;;;;;;5032952;28;20127;-82
2022/02/22 05:08:50;;;;;;;24.67;2.97;;;3.80;99.90;;;;;;5026270;28;20040;-82
2022/02/22 05:11:16;;;;;;;31.60;3.67;;;3.70;99.90;;;;;;5032992;28;20075;-81
2022/02/22 05:13:41;;;;;;;34.17;2.58;;;3.60;99.90;;;;;;5024550;28;20026;-83
2022/02/22 05:16:07;;;;;;;30.00;2.58;;;3.60;99.90;;;;;;5015410;28;20021;-82
2022/02/22 05:18:32;;;;;;;28.17;2.80;;;3.60;99.90;;;;;;5034996;28;20087;-81
2022/02/22 05:20:58;;;;;;;29.08;2.42;;;3.60;99.90;;;;;;5032278;28;20053;-81
2022/02/22 05:23:35;;;;;;;29.27;3.42;;;3.60;99.90;;;;;;5032685;28;20111;-82
2022/02/22 05:26:02;;;;;;;27.45;2.25;;;3.60;99.90;;;;;;5022203;28;20490;-81
2022/02/22 05:28:28;;;;;;;32.05;2.55;;;3.50;99.90;;;;;;5025487;28;20496;-81
2022/02/22 05:30:54;;;;;;;23.55;2.55;;;3.60;99.90;;;;;;5030527;28;20035;-81
2022/02/22 05:33:21;;;;;;;19.10;2.10;;;3.50;99.90;;;;;;5031507;28;20509;-82
2022/02/22 05:35:47;;;;;;;33.60;2.28;;;3.50;99.90;;;;;;5032087;28;20036;-81
2022/02/22 05:38:13;;;;;;;40.38;3.03;;;3.50;99.90;;;;;;5040365;28;20037;-80
2022/02/22 05:40:39;;;;;;;39.95;2.17;;;3.50;99.90;;;;;;5018442;28;20032;-80
2022/02/22 05:43:05;;;;;;;25.30;2.13;;;3.50;99.90;;;;;;5031569;28;20114;-81
2022/02/22 05:45:31;;;;;;;27.08;2.72;;;3.50;99.90;;;;;;5013173;28;20504;-81
2022/02/22 05:47:56;;;;;;;23.48;1.75;;;3.50;99.90;;;;;;5028940;28;20037;-79
2022/02/22 05:50:22;;;;;;;29.25;2.38;;;3.50;99.90;;;;;;5012179;28;20456;-80
2022/02/22 05:52:48;;;;;;;26.50;1.60;;;3.40;99.90;;;;;;5029612;28;20037;-80
2022/02/22 05:55:13;;;;;;;33.53;2.47;;;3.40;99.90;;;;;;5027868;28;20118;-80
2022/02/22 05:57:39;;;;;;;32.95;3.08;;;3.40;99.90;;;;;;5028380;28;20382;-80
2022/02/22 06:00:09;;;;;;;28.52;3.13;;;3.30;99.90;;;;;;5031442;28;20116;-80
2022/02/22 06:02:34;;;;;;;23.98;1.67;;;3.30;99.90;;;;;;5025766;28;20096;-81
2022/02/22 06:05:00;;;;;;;40.35;3.90;;;3.30;99.90;;;;;;5027910;28;20473;-80
2022/02/22 06:07:26;;;;;;;21.08;2.25;;;3.30;99.90;;;;;;5025824;28;20034;-80
2022/02/22 06:09:51;;;;;;;26.85;2.10;;;3.20;99.90;;;;;;5031500;28;20485;-81
2022/02/22 06:12:17;;;;;;;21.35;1.88;;;3.20;99.90;;;;;;5028238;28;20517;-81
2022/02/22 06:14:42;;;;;;;29.35;2.65;;;3.10;99.90;;;;;;5031379;28;20401;-81
2022/02/22 06:17:08;;;;;;;24.15;2.92;;;3.20;99.90;;;;;;5032021;28;20037;-81
2022/02/22 06:19:33;;;;;;;33.13;3.05;;;3.10;99.90;;;;;;5031282;28;20045;-81
2022/02/22 06:21:59;;;;;;;25.17;2.10;;;3.10;99.90;;;;;;5029873;28;20129;-81
2022/02/22 06:24:24;;;;;;;25.25;2.30;;;3.10;99.90;;;;;;5014692;28;20033;-81
2022/02/22 06:26:50;;;;;;;31.23;2.30;;;3.10;99.90;;;;;;5020762;28;20113;-81
2022/02/22 06:29:16;;;;;;;29.83;4.30;;;3.10;99.90;;;;;;5007072;28;20041;-80
2022/02/22 06:31:41;;;;;;;23.38;1.40;;;3.10;99.90;;;;;;5024656;28;20030;-81
2022/02/22 06:34:07;;;;;;;23.95;2.97;;;3.10;99.90;;;;;;5028897;28;20109;-80
2022/02/22 06:36:33;;;;;;;27.45;2.10;;;3.10;99.90;;;;;;5029410;28;20021;-79
2022/02/22 06:39:00;;;;;;;23.38;2.17;;;3.10;99.90;;;;;;5013715;28;20043;-80
2022/02/22 06:41:26;;;;;;;24.58;1.83;;;3.00;99.90;;;;;;5025135;28;20060;-80
2022/02/22 06:43:51;;;;;;;28.67;3.05;;;3.00;99.90;;;;;;5016419;28;20418;-81
2022/02/22 06:46:17;;;;;;;17.27;2.00;;;3.00;99.90;;;;;;5029821;28;20061;-82
2022/02/22 06:48:42;;;;;;;21.77;2.13;;;3.00;99.90;;;;;;5027709;28;20155;-81
2022/02/22 06:51:08;;;;;;;13.50;1.58;;;3.00;99.90;;;;;;5027352;28;20057;-81
2022/02/22 06:53:34;;;;;;;28.65;2.60;;;3.10;99.90;;;;;;5033814;28;20036;-81
2022/02/22 06:56:00;;;;;;;24.27;1.90;;;3.20;99.90;;;;;;5028191;28;20036;-83
2022/02/22 06:58:26;;;;;;;17.40;1.38;;;3.20;99.90;;;;;;5027657;28;20072;-82
2022/02/22 07:00:51;;;;;;;30.65;2.08;;;3.30;99.90;;;;;;5033512;28;20064;-83
2022/02/22 07:03:17;;;;;;;20.38;1.73;;;3.30;99.90;;;;;;5029901;28;20469;-82
2022/02/22 07:05:43;;;;;;;22.35;1.13;;;3.40;99.90;;;;;;5034332;28;20029;-82
2022/02/22 07:08:09;;;;;;;31.55;1.73;;;3.50;99.90;;;;;;5034795;28;20036;-82
2022/02/22 07:10:35;;;;;;;23.05;1.83;;;3.60;99.90;;;;;;5034456;28;20463;-82
2022/02/22 07:13:00;;;;;;;30.27;2.00;;;3.80;99.90;;;;;;5034116;28;20029;-82
2022/02/22 07:15:26;;;;;;;25.17;2.13;;;3.80;99.90;;;;;;5034370;28;20105;-81
2022/02/22 07:17:55;;;;;;;23.67;1.60;;;4.00;99.90;;;;;;5034260;28;20069;-81
2022/02/22 07:20:23;;;;;;;22.38;2.35;;;4.00;99.90;;;;;;5029165;28;20112;-81
2022/02/22 07:22:49;;;;;;;17.65;2.35;;;4.10;99.90;;;;;;5032863;28;20030;-81
2022/02/22 07:25:16;;;;;;;26.10;1.92;;;4.10;99.90;;;;;;5023842;28;20095;-81
2022/02/22 07:27:44;;;;;;;25.98;2.13;;;4.10;99.90;;;;;;5034089;28;20032;-81
2022/02/22 07:30:11;;;;;;;24.20;2.20;;;4.10;99.90;;;;;;5033979;28;20033;-81
2022/02/22 07:32:37;;;;;;;25.90;2.38;;;4.10;99.90;;;;;;5025028;28;20034;-81
2022/02/22 07:35:08;;;;;;;19.70;1.70;;;4.20;99.90;;;;;;5040349;28;20033;-80
2022/02/22 07:37:35;;;;;;;22.73;1.85;;;4.20;99.90;;;;;;4992818;28;20030;-82
2022/02/22 07:40:02;;;;;;;28.23;2.92;;;4.30;99.90;;;;;;5014877;28;20064;-82
2022/02/22 07:42:27;;;;;;;29.98;2.35;;;4.30;99.90;;;;;;5027405;28;20040;-81
2022/02/22 07:44:53;;;;;;;31.13;3.47;;;4.40;99.90;;;;;;5035289;28;20026;-82
2022/02/22 07:47:18;;;;;;;27.90;2.45;;;4.50;99.90;;;;;;5037910;28;20032;-81
2022/02/22 07:49:44;;;;;;;21.05;2.25;;;4.60;99.90;;;;;;5044258;28;20075;-77
2022/02/22 07:52:10;;;;;;;20.33;2.78;;;4.70;99.90;;;;;;5039025;28;20455;-77
2022/02/22 07:54:35;;;;;;;16.65;2.63;;;4.80;99.90;;;;;;5038302;28;20097;-77
2022/02/22 07:57:01;;;;;;;30.13;2.75;;;4.80;99.90;;;;;;5031344;28;20029;-77
2022/02/22 07:59:27;;;;;;;19.73;2.95;;;4.90;99.90;;;;;;5013369;28;20485;-77
2022/02/22 08:01:53;;;;;;;21.10;2.45;;;5.00;99.90;;;;;;5031354;28;20075;-77
2022/02/22 08:04:18;;;;;;;25.90;3.17;;;5.10;99.90;;;;;;5035244;28;20024;-78
2022/02/22 08:06:44;;;;;;;25.67;3.80;;;5.20;99.90;;;;;;5046610;28;20465;-77
2022/02/22 08:09:09;;;;;;;27.73;3.92;;;5.30;99.90;;;;;;5043147;28;20064;-77
2022/02/22 08:11:35;;;;;;;24.88;3.60;;;5.40;99.90;;;;;;5021658;28;20021;-77
2022/02/22 08:14:01;;;;;;;23.58;3.53;;;5.50;99.90;;;;;;5033624;28;20033;-77
2022/02/22 08:16:27;;;;;;;24.35;3.45;;;5.60;99.90;;;;;;5036082;28;20029;-77
2022/02/22 08:18:54;;;;;;;28.38;4.28;;;5.70;99.90;;;;;;5033920;28;20072;-77
2022/02/22 08:21:22;;;;;;;29.00;3.80;;;5.80;99.90;;;;;;5038228;28;20063;-78
2022/02/22 08:23:47;;;;;;;24.88;4.32;;;5.80;99.90;;;;;;5027768;28;20025;-80
2022/02/22 08:26:14;;;;;;;28.48;4.32;;;5.90;99.90;;;;;;5035011;28;20025;-79
2022/02/22 08:28:39;;;;;;;24.23;3.95;;;5.90;99.90;;;;;;5033728;28;20034;-78
2022/02/22 08:31:05;;;;;;;18.33;4.07;;;6.00;99.90;;;;;;5032935;28;20075;-78
2022/02/22 08:33:31;;;;;;;27.17;4.22;;;6.10;99.90;;;;;;5036674;28;20021;-78
2022/02/22 08:35:57;;;;;;;18.52;4.43;;;6.10;99.90;;;;;;5029415;28;20409;-77
2022/02/22 08:38:22;;;;;;;26.17;4.00;;;6.20;99.90;;;;;;5030939;28;20041;-77
2022/02/22 08:40:49;;;;;;;25.98;6.13;;;6.20;99.90;;;;;;5040953;28;20108;-78
2022/02/22 08:43:15;;;;;;;20.35;3.53;;;6.30;99.90;;;;;;5030500;28;20022;-78
2022/02/22 08:45:42;;;;;;;25.65;5.53;;;6.30;99.90;;;;;;5031430;28;20032;-77
2022/02/22 08:48:08;;;;;;;25.33;4.40;;;6.40;99.90;;;;;;5034752;28;20409;-78
2022/02/22 08:50:33;;;;;;;28.02;5.45;;;6.40;99.90;;;;;;5017355;28;20029;-78
2022/02/22 08:52:59;;;;;;;35.80;5.30;;;6.40;99.90;;;;;;5050642;28;20127;-78
2022/02/22 08:55:24;;;;;;;33.33;4.70;;;6.50;99.90;;;;;;5050841;28;20021;-77
2022/02/22 08:57:50;;;;;;;26.75;4.20;;;6.60;99.90;;;;;;5045899;28;20500;-78
2022/02/22 09:00:16;;;;;;;25.92;3.90;;;6.60;99.90;;;;;;5035123;28;20025;-78
2022/02/22 09:02:42;;;;;;;33.28;5.47;;;6.60;99.90;;;;;;5048257;28;20032;-78
2022/02/22 09:05:09;;;;;;;26.70;4.70;;;6.70;99.90;;;;;;5030793;28;20033;-78
2022/02/22 09:07:35;;;;;;;29.13;5.15;;;6.70;99.90;;;;;;5042082;28;20018;-78
2022/02/22 09:10:01;;;;;;;31.45;5.18;;;6.80;99.90;;;;;;5020253;28;20033;-78
2022/02/22 09:12:27;;;;;;;27.42;4.28;;;6.90;99.90;;;;;;5022717;28;20034;-78
2022/02/22 09:14:54;;;;;;;25.90;5.38;;;7.00;99.90;;;;;;5032402;28;20031;-80
2022/02/22 09:17:20;;;;;;;28.02;4.57;;;7.00;99.90;;;;;;5035362;28;20075;-79
2022/02/22 09:19:45;;;;;;;28.55;5.30;;;7.10;99.90;;;;;;5031466;28;20049;-79
2022/02/22 09:22:11;;;;;;;24.73;4.40;;;7.20;99.90;;;;;;5037542;28;20424;-79
2022/02/22 09:24:37;;;;;;;28.63;5.00;;;7.30;99.90;;;;;;5050262;28;20468;-79
2022/02/22 09:27:04;;;;;;;18.23;3.42;;;7.30;99.90;;;;;;5049648;28;20025;-80
2022/02/22 09:29:30;;;;;;;26.52;3.90;;;7.40;99.90;;;;;;5045741;28;20032;-80
2022/02/22 09:31:55;;;;;;;23.83;3.70;;;7.40;99.90;;;;;;5050842;28;20032;-79
2022/02/22 09:34:22;;;;;;;26.00;4.22;;;7.40;99.90;;;;;;5049836;28;20044;-79
2022/02/22 09:36:48;;;;;;;24.50;3.38;;;7.50;99.90;;;;;;5045118;28;20033;-79
2022/02/22 09:39:14;;;;;;;19.40;3.33;;;7.50;99.90;;;;;;5051819;28;20069;-79
2022/02/22 09:41:39;;;;;;;30.02;3.95;;;7.60;99.90;;;;;;5043428;28;20064;-79
2022/02/22 09:44:05;;;;;;;24.80;3.20;;;7.60;99.90;;;;;;5051544;28;20075;-79
2022/02/22 09:46:31;;;;;;;26.38;3.58;;;7.70;99.90;;;;;;5029946;28;20497;-79
2022/02/22 09:48:56;;;;;;;21.90;3.85;;;7.70;99.90;;;;;;5028089;28;20051;-80
2022/02/22 09:51:22;;;;;;;32.55;3.88;;;7.80;99.90;;;;;;5029828;28;20543;-79
2022/02/22 09:53:47;;;;;;;20.92;3.78;;;7.80;99.90;;;;;;5031022;28;20029;-79
2022/02/22 09:56:13;;;;;;;26.35;3.22;;;7.90;99.90;;;;;;5025113;28;20030;-78
2022/02/22 09:58:38;;;;;;;27.75;4.15;;;7.90;99.90;;;;;;5017231;28;20040;-79
2022/02/22 10:01:04;;;;;;;20.48;2.45;;;7.90;99.90;;;;;;5021008;28;20029;-79
2022/02/22 10:03:30;;;;;;;31.40;3.60;;;7.90;99.90;;;;;;5030754;28;20390;-80
2022/02/22 10:06:01;;;;;;;30.40;3.55;;;7.90;99.90;;;;;;5033478;28;20116;-80
2022/02/22 10:08:28;;;;;;;27.48;3.67;;;7.90;99.90;;;;;;5039552;28;20063;-80
2022/02/22 10:11:03;;;;;;;25.08;3.20;;;7.90;99.90;;;;;;5028305;28;20028;-79
2022/02/22 10:13:29;;;;;;;32.30;4.65;;;7.90;99.90;;;;;;5042347;28;20147;-80
2022/02/22 10:15:55;;;;;;;23.23;4.30;;;8.00;99.90;;;;;;5044006;28;20029;-80
2022/02/22 10:18:21;;;;;;;26.08;3.03;;;8.10;99.90;;;;;;5028015;28;20193;-79
2022/02/22 10:20:48;;;;;;;27.33;2.97;;;8.10;99.90;;;;;;5024856;28;20072;-78
2022/02/22 10:23:14;;;;;;;23.05;4.03;;;8.20;99.90;;;;;;5034205;28;20473;-79
2022/02/22 10:25:39;;;;;;;20.67;3.30;;;8.20;99.90;;;;;;5036202;28;20040;-76
2022/02/22 10:28:06;;;;;;;19.33;3.53;;;8.30;99.90;;;;;;5047068;28;20099;-76
2022/02/22 10:30:39;;;;;;;20.02;3.45;;;8.30;99.90;;;;;;5021022;28;20022;-77
2022/02/22 10:33:21;;;;;;;21.30;3.15;;;8.40;99.90;;;;;;5040416;28;20029;-79
2022/02/22 10:35:52;;;;;;;23.77;3.03;;;8.40;99.90;;;;;;5030905;28;20486;-78
2022/02/22 10:38:27;;;;;;;32.90;4.47;;;8.40;99.90;;;;;;5031968;28;20065;-78
2022/02/22 10:41:02;;;;;;;23.73;2.47;;;8.50;99.90;;;;;;5034816;28;20485;-78
2022/02/22 10:43:38;;;;;;;26.88;5.00;;;8.50;99.90;;;;;;5039157;28;20029;-78
2022/02/22 10:46:05;;;;;;;24.77;3.50;;;8.50;99.90;;;;;;5030035;28;20039;-79
2022/02/22 10:48:36;;;;;;;25.83;3.67;;;8.50;99.90;;;;;;5025138;28;20079;-79
2022/02/22 10:51:04;;;;;;;23.00;3.20;;;8.50;99.90;;;;;;5015476;28;20022;-80
2022/02/22 10:53:37;;;;;;;25.75;3.30;;;8.50;99.90;;;;;;5032474;28;20029;-79
2022/02/22 10:56:06;;;;;;;21.83;3.47;;;8.50;99.90;;;;;;5034924;28;20026;-79
2022/02/22 10:58:32;;;;;;;35.72;4.15;;;8.50;99.90;;;;;;5033601;28;20033;-79
2022/02/22 11:00:58;;;;;;;23.27;3.00;;;8.50;99.90;;;;;;5034916;28;20021;-79
2022/02/22 11:03:25;;;;;;;24.05;4.20;;;8.60;99.90;;;;;;5034046;28;20037;-79
2022/02/22 11:05:52;;;;;;;22.92;3.20;;;8.60;99.90;;;;;;5034082;28;20384;-79
2022/02/22 11:08:29;;;;;;;23.15;3.60;;;8.60;99.90;;;;;;5034664;28;20027;-79
2022/02/22 11:11:01;;;;;;;32.80;4.68;;;8.70;99.90;;;;;;5027250;28;20025;-79
2022/02/22 11:13:28;;;;;;;31.33;3.85;;;8.70;99.90;;;;;;5020573;28;20404;-80
2022/02/22 11:15:54;;;;;;;29.75;3.95;;;8.70;99.90;;;;;;5034184;28;20039;-79
2022/02/22 11:18:24;;;;;;;29.77;3.78;;;8.70;99.90;;;;;;5034522;28;20108;-79
2022/02/22 11:20:50;;;;;;;19.52;3.22;;;8.70;99.90;;;;;;5033641;28;20045;-80
2022/02/22 11:23:26;;;;;;;33.70;4.85;;;8.70;99.90;;;;;;5032202;28;20108;-79
2022/02/22 11:26:11;;;;;;;29.45;4.78;;;8.60;99.90;;;;;;5031929;28;20037;-80
2022/02/22 11:28:40;;;;;;;33.60;4.70;;;8.50;99.90;;;;;;5032974;28;20371;-79
2022/02/22 11:31:17;;;;;;;25.55;4.22;;;8.40;99.90;;;;;;5034192;28;20029;-79
2022/02/22 11:33:53;;;;;;;38.95;5.15;;;8.40;99.90;;;;;;5033484;28;20047;-78
2022/02/22 11:36:30;;;;;;;39.28;4.95;;;8.30;99.90;;;;;;5032923;28;20033;-79
2022/02/22 11:38:57;;;;;;;31.83;4.65;;;8.30;99.90;;;;;;5029218;28;20072;-79
2022/02/22 11:41:25;;;;;;;29.15;4.65;;;8.20;99.90;;;;;;5034058;28;20022;-80
2022/02/22 11:44:04;;;;;;;26.20;5.40;;;8.10;99.90;;;;;;5015884;28;20025;-80
2022/02/22 11:46:40;;;;;;;34.58;5.10;;;8.20;99.90;;;;;;5032011;28;20072;-80
2022/02/22 11:49:08;;;;;;;23.27;4.78;;;8.20;99.90;;;;;;5032886;28;20128;-79
2022/02/22 11:51:43;;;;;;;37.45;5.35;;;8.10;99.90;;;;;;5030831;28;20122;-79
2022/02/22 11:54:17;;;;;;;32.45;4.60;;;8.10;99.90;;;;;;5025816;28;20026;-79
2022/02/22 11:56:43;;;;;;;45.72;5.50;;;8.10;99.90;;;;;;5015173;28;20028;-79
2022/02/22 11:59:21;;;;;;;27.45;4.35;;;8.10;99.90;;;;;;5031699;28;20779;-79
2022/02/22 12:01:55;;;;;;;30.02;4.47;;;8.10;99.90;;;;;;5029479;28;20120;-80
2022/02/22 12:04:26;;;;;;;31.77;6.18;;;8.10;99.90;;;;;;5018820;28;20028;-80
2022/02/22 12:06:56;;;;;;;32.47;5.10;;;8.10;99.90;;;;;;5034671;28;20128;-81
2022/02/22 12:09:33;;;;;;;30.52;6.28;;;8.10;99.90;;;;;;5031579;28;20394;-81
2022/02/22 12:12:09;;;;;;;35.47;5.50;;;8.20;99.90;;;;;;5044559;28;20417;-82
2022/02/22 12:14:36;;;;;;;31.33;6.40;;;8.20;99.90;;;;;;5048428;28;20372;-81
2022/02/22 12:17:09;;;;;;;30.85;6.75;;;8.30;99.90;;;;;;5039031;28;20116;-82
2022/02/22 12:19:36;;;;;;;37.10;6.63;;;8.30;99.90;;;;;;5029964;28;20033;-82
2022/02/22 12:22:06;;;;;;;29.65;6.47;;;8.40;99.90;;;;;;5048307;28;20409;-82
2022/02/22 12:24:32;;;;;;;29.98;6.78;;;8.40;99.90;;;;;;5036110;28;20038;-80
2022/02/22 12:27:08;;;;;;;29.33;7.38;;;8.40;99.90;;;;;;5037371;28;20037;-82
2022/02/22 12:29:34;;;;;;;33.42;7.35;;;8.50;99.90;;;;;;5034449;28;20030;-82
2022/02/22 12:32:01;;;;;;;33.90;7.38;;;8.50;99.90;;;;;;5049324;28;20017;-82
2022/02/22 12:34:28;;;;;;;35.97;7.18;;;8.60;99.90;;;;;;5021384;28;20030;-81
2022/02/22 12:36:58;;;;;;;38.33;9.35;;;8.70;99.90;;;;;;5042621;28;20025;-81
2022/02/22 12:39:29;;;;;;;39.00;7.93;;;8.80;99.90;;;;;;5050917;28;20511;-81
2022/02/22 12:41:57;;;;;;;38.55;7.65;;;8.90;99.90;;;;;;5048894;28;20024;-82
2022/02/22 12:44:25;;;;;;;32.20;8.40;;;9.00;99.90;;;;;;5040192;28;20030;-82
2022/02/22 12:46:53;;;;;;;30.83;8.05;;;9.10;99.90;;;;;;5016314;28;20120;-81